createdAt,value
2022-12-24T00:19:13.482Z,10
2022-12-24T00:29:14.435Z,9.9
2022-12-24T00:59:17.266Z,9.9
2022-12-24T01:39:19.248Z,9.9
2022-12-24T01:59:20.574Z,9.9
2022-12-24T02:19:22.246Z,9.9
2022-12-24T02:49:24.578Z,9.8
2022-12-24T02:59:24.978Z,9.8
2022-12-24T03:09:25.766Z,9.7
2022-12-24T03:19:26.389Z,9.7
2022-12-24T03:29:26.953Z,9.6
2022-12-24T03:39:27.971Z,9.6
2022-12-24T03:59:29.406Z,9.6
2022-12-24T04:19:30.808Z,9.5
2022-12-24T04:39:32.091Z,9.6
2022-12-24T04:49:32.835Z,9.6
2022-12-24T04:59:33.385Z,9.5
2022-12-24T05:09:33.882Z,9.6
2022-12-24T05:19:34.259Z,9.5
2022-12-24T05:29:35.328Z,9.6
2022-12-24T05:39:35.867Z,9.6
2022-12-24T05:49:36.657Z,9.7
2022-12-24T05:59:37.308Z,9.7
2022-12-24T06:19:38.892Z,9.8
2022-12-24T06:29:39.880Z,9.9
2022-12-24T06:39:39.996Z,9.9
2022-12-24T06:59:41.742Z,9.8
2022-12-24T07:09:42.102Z,9.9
2022-12-24T07:19:42.886Z,10
2022-12-24T07:29:43.606Z,10
2022-12-24T07:39:44.169Z,9.9
2022-12-24T07:59:45.791Z,9.7
2022-12-24T08:09:46.878Z,9.7
2022-12-24T08:29:47.805Z,9.9
2022-12-24T08:49:49.432Z,10.3
2022-12-24T09:29:52.054Z,10.4
2022-12-24T09:59:54.695Z,10.3
2022-12-24T10:09:54.811Z,10.3
2022-12-24T10:19:54.970Z,10.5
2022-12-24T10:39:55.984Z,10.7
2022-12-24T10:49:56.231Z,10.9
2022-12-24T10:59:56.784Z,11.3
2022-12-24T11:09:56.887Z,11.2
2022-12-24T11:19:57.318Z,11
2022-12-24T11:30:00.098Z,11
2022-12-24T11:39:57.955Z,10.9
2022-12-24T11:50:13.107Z,10.9
2022-12-24T12:09:59.456Z,10.9
2022-12-24T12:30:00.587Z,11.1
2022-12-24T12:40:01.621Z,11
2022-12-24T12:50:02.636Z,11.1
2022-12-24T13:30:09.505Z,11.2
2022-12-24T13:40:05.706Z,11
2022-12-24T14:10:07.034Z,10.9
2022-12-24T14:20:07.666Z,11
2022-12-24T14:50:09.101Z,10.5
2022-12-24T15:00:09.792Z,10.2
2022-12-24T15:10:10.467Z,10.1
2022-12-24T15:20:11.444Z,9.8
2022-12-24T15:30:11.693Z,9.5
2022-12-24T15:40:12.139Z,9.3
2022-12-24T15:50:12.674Z,9
2022-12-24T16:00:12.819Z,8.8
2022-12-24T16:10:13.767Z,8.6
2022-12-24T16:20:14.435Z,8.4
2022-12-24T16:30:15.218Z,8.3
2022-12-24T16:40:18.404Z,8
2022-12-24T16:50:16.532Z,7.9
2022-12-24T17:00:16.649Z,7.6
2022-12-24T17:10:17.403Z,7.4
2022-12-24T17:20:22.130Z,7.3
2022-12-24T17:40:18.901Z,7.4
2022-12-24T17:50:19.640Z,7
2022-12-24T18:00:19.810Z,6.3
2022-12-24T18:10:20.281Z,6
2022-12-24T18:20:20.430Z,5.6
2022-12-24T18:30:25.929Z,5.2
2022-12-24T18:40:21.755Z,5.1
2022-12-24T19:00:22.774Z,4.8
2022-12-24T19:10:23.458Z,4.7
2022-12-24T19:20:24.386Z,4.7
2022-12-24T19:30:25.462Z,4.6
2022-12-24T19:50:26.078Z,4.3
2022-12-24T20:00:26.700Z,4.1
2022-12-24T20:10:27.041Z,4.1
2022-12-24T20:20:27.591Z,4.2
2022-12-24T20:30:28.180Z,4.2
2022-12-24T20:40:28.803Z,4.3
2022-12-24T20:50:29.459Z,4.3
2022-12-24T21:00:30.440Z,4.4
2022-12-24T21:10:34.339Z,4.4
2022-12-24T21:20:31.828Z,4.4
2022-12-24T21:30:32.631Z,4.4
2022-12-24T21:40:33.483Z,4.4
2022-12-24T22:00:34.889Z,4.5
2022-12-24T22:10:35.247Z,4.5
2022-12-24T22:30:37.336Z,4.4
2022-12-24T22:50:39.030Z,4.4
2022-12-24T23:10:40.455Z,4.2
2022-12-24T23:30:41.408Z,4
2022-12-24T23:40:42.307Z,4
2022-12-24T23:50:42.466Z,4
